sensor_id;sensor_type;location;lat;lon;timestamp;temperature;humidity
9225;DHT22;4647;48.072;11.616;2022-12-20T00:01:26;1.10;99.90
9225;DHT22;4647;48.072;11.616;2022-12-20T00:03:55;1.10;99.90
9225;DHT22;4647;48.072;11.616;2022-12-20T00:06:22;1.10;99.90
9225;DHT22;4647;48.072;11.616;2022-12-20T00:08:53;1.20;99.90
9225;DHT22;4647;48.072;11.616;2022-12-20T00:11:20;1.20;99.90
9225;DHT22;4647;48.072;11.616;2022-12-20T00:13:48;1.20;99.90
9225;DHT22;4647;48.072;11.616;2022-12-20T00:16:16;1.10;99.90
9225;DHT22;4647;48.072;11.616;2022-12-20T00:18:44;1.00;99.90
9225;DHT22;4647;48.072;11.616;2022-12-20T00:21:12;1.10;99.90
9225;DHT22;4647;48.072;11.616;2022-12-20T00:23:40;1.00;99.90
9225;DHT22;4647;48.072;11.616;2022-12-20T00:26:09;1.10;99.90
9225;DHT22;4647;48.072;11.616;2022-12-20T00:28:37;1.10;99.90
9225;DHT22;4647;48.072;11.616;2022-12-20T00:31:07;1.10;99.90
9225;DHT22;4647;48.072;11.616;2022-12-20T00:33:35;1.20;99.90
9225;DHT22;4647;48.072;11.616;2022-12-20T00:36:03;1.20;99.90
9225;DHT22;4647;48.072;11.616;2022-12-20T00:38:30;1.20;99.90
9225;DHT22;4647;48.072;11.616;2022-12-20T00:41:00;1.30;99.90
9225;DHT22;4647;48.072;11.616;2022-12-20T00:43:27;1.30;99.90
9225;DHT22;4647;48.072;11.616;2022-12-20T00:45:54;1.40;99.90
9225;DHT22;4647;48.072;11.616;2022-12-20T00:48:23;1.50;99.90
9225;DHT22;4647;48.072;11.616;2022-12-20T00:50:50;1.50;99.90
9225;DHT22;4647;48.072;11.616;2022-12-20T00:53:18;1.60;99.90
9225;DHT22;4647;48.072;11.616;2022-12-20T00:55:45;1.60;99.90
9225;DHT22;4647;48.072;11.616;2022-12-20T00:58:13;1.50;99.90
9225;DHT22;4647;48.072;11.616;2022-12-20T01:00:39;1.50;99.90
9225;DHT22;4647;48.072;11.616;2022-12-20T01:03:07;1.50;99.90
9225;DHT22;4647;48.072;11.616;2022-12-20T01:05:35;1.50;99.90
9225;DHT22;4647;48.072;11.616;2022-12-20T01:08:02;1.60;99.90
9225;DHT22;4647;48.072;11.616;2022-12-20T01:10:29;1.60;99.90
9225;DHT22;4647;48.072;11.616;2022-12-20T01:12:56;1.50;99.90
9225;DHT22;4647;48.072;11.616;2022-12-20T01:15:23;1.60;99.90
9225;DHT22;4647;48.072;11.616;2022-12-20T01:17:50;1.60;99.90
9225;DHT22;4647;48.072;11.616;2022-12-20T01:20:17;1.70;99.90
9225;DHT22;4647;48.072;11.616;2022-12-20T01:22:45;1.70;99.90
9225;DHT22;4647;48.072;11.616;2022-12-20T01:25:12;1.70;99.90
9225;DHT22;4647;48.072;11.616;2022-12-20T01:27:39;1.70;99.90
9225;DHT22;4647;48.072;11.616;2022-12-20T01:30:07;1.70;99.90
9225;DHT22;4647;48.072;11.616;2022-12-20T01:32:34;1.70;99.90
9225;DHT22;4647;48.072;11.616;2022-12-20T01:35:01;1.70;99.90
9225;DHT22;4647;48.072;11.616;2022-12-20T01:37:28;1.70;99.90
9225;DHT22;4647;48.072;11.616;2022-12-20T01:39:56;1.70;99.90
9225;DHT22;4647;48.072;11.616;2022-12-20T01:42:23;1.60;99.90
9225;DHT22;4647;48.072;11.616;2022-12-20T01:44:58;1.60;99.90
9225;DHT22;4647;48.072;11.616;2022-12-20T01:47:25;1.70;99.90
9225;DHT22;4647;48.072;11.616;2022-12-20T01:49:55;1.70;99.90
9225;DHT22;4647;48.072;11.616;2022-12-20T01:52:28;1.70;99.90
9225;DHT22;4647;48.072;11.616;2022-12-20T01:55:03;1.70;99.90
9225;DHT22;4647;48.072;11.616;2022-12-20T01:57:34;1.70;99.90
9225;DHT22;4647;48.072;11.616;2022-12-20T02:00:03;1.70;99.90
9225;DHT22;4647;48.072;11.616;2022-12-20T02:02:31;1.70;99.90
9225;DHT22;4647;48.072;11.616;2022-12-20T02:04:58;1.70;99.90
9225;DHT22;4647;48.072;11.616;2022-12-20T02:07:29;1.80;99.90
9225;DHT22;4647;48.072;11.616;2022-12-20T02:10:00;1.80;99.90
9225;DHT22;4647;48.072;11.616;2022-12-20T02:12:31;1.70;99.90
9225;DHT22;4647;48.072;11.616;2022-12-20T02:15:13;1.80;99.90
9225;DHT22;4647;48.072;11.616;2022-12-20T02:17:48;1.70;99.90
9225;DHT22;4647;48.072;11.616;2022-12-20T02:23:49;1.70;99.90
9225;DHT22;4647;48.072;11.616;2022-12-20T02:26:49;1.70;99.90
9225;DHT22;4647;48.072;11.616;2022-12-20T02:29:24;1.70;99.90
9225;DHT22;4647;48.072;11.616;2022-12-20T02:32:01;1.80;99.90
9225;DHT22;4647;48.072;11.616;2022-12-20T02:34:32;1.80;99.90
9225;DHT22;4647;48.072;11.616;2022-12-20T02:37:00;1.70;99.90
9225;DHT22;4647;48.072;11.616;2022-12-20T02:39:28;1.70;99.90
9225;DHT22;4647;48.072;11.616;2022-12-20T02:42:00;1.90;99.90
9225;DHT22;4647;48.072;11.616;2022-12-20T02:44:29;1.80;99.90
9225;DHT22;4647;48.072;11.616;2022-12-20T02:47:20;1.80;99.90
9225;DHT22;4647;48.072;11.616;2022-12-20T02:49:49;1.80;99.90
9225;DHT22;4647;48.072;11.616;2022-12-20T02:52:18;1.80;99.90
9225;DHT22;4647;48.072;11.616;2022-12-20T02:54:46;1.80;99.90
9225;DHT22;4647;48.072;11.616;2022-12-20T02:57:17;1.80;99.90
9225;DHT22;4647;48.072;11.616;2022-12-20T02:59:49;1.70;99.90
9225;DHT22;4647;48.072;11.616;2022-12-20T03:02:20;1.80;99.90
9225;DHT22;4647;48.072;11.616;2022-12-20T03:04:48;1.90;99.90
9225;DHT22;4647;48.072;11.616;2022-12-20T03:07:15;1.90;99.90
9225;DHT22;4647;48.072;11.616;2022-12-20T03:09:43;1.90;99.90
9225;DHT22;4647;48.072;11.616;2022-12-20T03:12:11;1.90;99.90
9225;DHT22;4647;48.072;11.616;2022-12-20T03:14:38;1.90;99.90
9225;DHT22;4647;48.072;11.616;2022-12-20T03:17:05;1.90;99.90
9225;DHT22;4647;48.072;11.616;2022-12-20T03:19:34;1.90;99.90
9225;DHT22;4647;48.072;11.616;2022-12-20T03:22:01;2.00;99.90
9225;DHT22;4647;48.072;11.616;2022-12-20T03:24:29;2.00;99.90
9225;DHT22;4647;48.072;11.616;2022-12-20T03:26:57;2.00;99.90
9225;DHT22;4647;48.072;11.616;2022-12-20T03:29:23;1.90;99.90
9225;DHT22;4647;48.072;11.616;2022-12-20T03:31:50;2.00;99.90
9225;DHT22;4647;48.072;11.616;2022-12-20T03:34:17;2.00;99.90
9225;DHT22;4647;48.072;11.616;2022-12-20T03:36:45;2.00;99.90
9225;DHT22;4647;48.072;11.616;2022-12-20T03:39:12;2.10;99.90
9225;DHT22;4647;48.072;11.616;2022-12-20T03:41:40;2.10;99.90
9225;DHT22;4647;48.072;11.616;2022-12-20T03:44:07;2.10;99.90
9225;DHT22;4647;48.072;11.616;2022-12-20T03:46:34;2.10;99.90
9225;DHT22;4647;48.072;11.616;2022-12-20T03:49:01;2.10;99.90
9225;DHT22;4647;48.072;11.616;2022-12-20T03:51:27;2.10;99.90
9225;DHT22;4647;48.072;11.616;2022-12-20T03:53:56;2.10;99.90
9225;DHT22;4647;48.072;11.616;2022-12-20T03:56:23;2.00;99.90
9225;DHT22;4647;48.072;11.616;2022-12-20T03:58:49;2.00;99.90
9225;DHT22;4647;48.072;11.616;2022-12-20T04:01:21;2.00;99.90
9225;DHT22;4647;48.072;11.616;2022-12-20T04:03:48;2.00;99.90
9225;DHT22;4647;48.072;11.616;2022-12-20T04:06:15;2.00;99.90
9225;DHT22;4647;48.072;11.616;2022-12-20T04:08:43;2.00;99.90
9225;DHT22;4647;48.072;11.616;2022-12-20T04:11:11;2.00;99.90
9225;DHT22;4647;48.072;11.616;2022-12-20T04:13:45;2.00;99.90
9225;DHT22;4647;48.072;11.616;2022-12-20T04:16:13;2.00;99.90
9225;DHT22;4647;48.072;11.616;2022-12-20T04:18:41;2.10;99.90
9225;DHT22;4647;48.072;11.616;2022-12-20T04:21:08;2.10;99.90
9225;DHT22;4647;48.072;11.616;2022-12-20T04:23:35;2.10;99.90
9225;DHT22;4647;48.072;11.616;2022-12-20T04:26:03;2.10;99.90
9225;DHT22;4647;48.072;11.616;2022-12-20T04:28:32;2.20;99.90
9225;DHT22;4647;48.072;11.616;2022-12-20T04:30:59;2.20;99.90
9225;DHT22;4647;48.072;11.616;2022-12-20T04:33:26;2.20;99.90
9225;DHT22;4647;48.072;11.616;2022-12-20T04:35:54;2.20;99.90
9225;DHT22;4647;48.072;11.616;2022-12-20T04:38:21;2.10;99.90
9225;DHT22;4647;48.072;11.616;2022-12-20T04:40:48;2.20;99.90
9225;DHT22;4647;48.072;11.616;2022-12-20T04:43:16;2.10;99.90
9225;DHT22;4647;48.072;11.616;2022-12-20T04:45:46;2.20;99.90
9225;DHT22;4647;48.072;11.616;2022-12-20T04:48:14;2.10;99.90
9225;DHT22;4647;48.072;11.616;2022-12-20T04:50:41;2.10;99.90
9225;DHT22;4647;48.072;11.616;2022-12-20T04:53:08;2.10;99.90
9225;DHT22;4647;48.072;11.616;2022-12-20T04:55:53;2.00;99.90
9225;DHT22;4647;48.072;11.616;2022-12-20T04:58:20;2.00;99.90
9225;DHT22;4647;48.072;11.616;2022-12-20T05:00:49;2.00;99.90
9225;DHT22;4647;48.072;11.616;2022-12-20T05:03:16;2.00;99.90
9225;DHT22;4647;48.072;11.616;2022-12-20T05:05:43;2.00;99.90
9225;DHT22;4647;48.072;11.616;2022-12-20T05:08:10;2.10;99.90
9225;DHT22;4647;48.072;11.616;2022-12-20T05:10:37;2.10;99.90
9225;DHT22;4647;48.072;11.616;2022-12-20T05:13:04;2.10;99.90
9225;DHT22;4647;48.072;11.616;2022-12-20T05:15:31;2.10;99.90
9225;DHT22;4647;48.072;11.616;2022-12-20T05:17:59;2.10;99.90
9225;DHT22;4647;48.072;11.616;2022-12-20T05:20:26;1.90;99.90
9225;DHT22;4647;48.072;11.616;2022-12-20T05:22:54;1.90;99.90
9225;DHT22;4647;48.072;11.616;2022-12-20T05:25:39;1.90;99.90
9225;DHT22;4647;48.072;11.616;2022-12-20T05:28:25;1.90;99.90
9225;DHT22;4647;48.072;11.616;2022-12-20T05:30:52;1.90;99.90
9225;DHT22;4647;48.072;11.616;2022-12-20T05:33:20;2.00;99.90
9225;DHT22;4647;48.072;11.616;2022-12-20T05:35:47;2.00;99.90
9225;DHT22;4647;48.072;11.616;2022-12-20T05:38:14;1.90;99.90
9225;DHT22;4647;48.072;11.616;2022-12-20T05:40:41;2.00;99.90
9225;DHT22;4647;48.072;11.616;2022-12-20T05:43:09;2.10;99.90
9225;DHT22;4647;48.072;11.616;2022-12-20T05:45:36;2.10;99.90
9225;DHT22;4647;48.072;11.616;2022-12-20T05:48:03;2.10;99.90
9225;DHT22;4647;48.072;11.616;2022-12-20T05:50:31;2.20;99.90
9225;DHT22;4647;48.072;11.616;2022-12-20T05:52:58;2.20;99.90
9225;DHT22;4647;48.072;11.616;2022-12-20T05:55:25;2.10;99.90
9225;DHT22;4647;48.072;11.616;2022-12-20T05:57:52;2.10;99.90
9225;DHT22;4647;48.072;11.616;2022-12-20T06:00:19;2.10;99.90
9225;DHT22;4647;48.072;11.616;2022-12-20T06:02:46;2.20;99.90
9225;DHT22;4647;48.072;11.616;2022-12-20T06:05:13;2.20;99.90
9225;DHT22;4647;48.072;11.616;2022-12-20T06:07:41;2.20;99.90
9225;DHT22;4647;48.072;11.616;2022-12-20T06:10:09;2.00;99.90
9225;DHT22;4647;48.072;11.616;2022-12-20T06:12:36;2.00;99.90
9225;DHT22;4647;48.072;11.616;2022-12-20T06:15:04;2.00;99.90
9225;DHT22;4647;48.072;11.616;2022-12-20T06:17:31;2.00;99.90
9225;DHT22;4647;48.072;11.616;2022-12-20T06:19:57;2.00;99.90
9225;DHT22;4647;48.072;11.616;2022-12-20T06:22:24;2.10;99.90
9225;DHT22;4647;48.072;11.616;2022-12-20T06:24:53;2.10;99.90
9225;DHT22;4647;48.072;11.616;2022-12-20T06:27:20;2.10;99.90
9225;DHT22;4647;48.072;11.616;2022-12-20T06:29:47;2.20;99.90
9225;DHT22;4647;48.072;11.616;2022-12-20T06:32:19;2.30;99.90
9225;DHT22;4647;48.072;11.616;2022-12-20T06:34:46;2.30;99.90
9225;DHT22;4647;48.072;11.616;2022-12-20T06:37:12;2.30;99.90
9225;DHT22;4647;48.072;11.616;2022-12-20T06:39:39;2.20;99.90
9225;DHT22;4647;48.072;11.616;2022-12-20T06:42:07;2.30;99.90
9225;DHT22;4647;48.072;11.616;2022-12-20T06:44:34;2.30;99.90
9225;DHT22;4647;48.072;11.616;2022-12-20T06:47:01;2.30;99.90
9225;DHT22;4647;48.072;11.616;2022-12-20T06:49:28;2.40;99.90
9225;DHT22;4647;48.072;11.616;2022-12-20T06:51:55;2.40;99.90
9225;DHT22;4647;48.072;11.616;2022-12-20T06:54:22;2.40;99.90
9225;DHT22;4647;48.072;11.616;2022-12-20T06:56:49;2.50;99.90
9225;DHT22;4647;48.072;11.616;2022-12-20T06:59:17;2.50;99.90
9225;DHT22;4647;48.072;11.616;2022-12-20T07:01:44;2.50;99.90
9225;DHT22;4647;48.072;11.616;2022-12-20T07:04:11;2.50;99.90
9225;DHT22;4647;48.072;11.616;2022-12-20T07:06:38;2.50;99.90
9225;DHT22;4647;48.072;11.616;2022-12-20T07:09:04;2.60;99.90
9225;DHT22;4647;48.072;11.616;2022-12-20T07:11:31;2.50;99.90
9225;DHT22;4647;48.072;11.616;2022-12-20T07:13:58;2.50;99.90
9225;DHT22;4647;48.072;11.616;2022-12-20T07:16:26;2.50;99.90
9225;DHT22;4647;48.072;11.616;2022-12-20T07:18:53;2.40;99.90
9225;DHT22;4647;48.072;11.616;2022-12-20T07:21:20;2.50;99.90
9225;DHT22;4647;48.072;11.616;2022-12-20T07:23:47;2.50;99.90
9225;DHT22;4647;48.072;11.616;2022-12-20T07:26:14;2.70;99.90
9225;DHT22;4647;48.072;11.616;2022-12-20T07:28:41;2.70;99.90
9225;DHT22;4647;48.072;11.616;2022-12-20T07:31:09;2.80;99.90
9225;DHT22;4647;48.072;11.616;2022-12-20T07:33:37;2.80;99.90
9225;DHT22;4647;48.072;11.616;2022-12-20T07:36:06;2.90;99.90
9225;DHT22;4647;48.072;11.616;2022-12-20T07:38:33;3.00;99.90
9225;DHT22;4647;48.072;11.616;2022-12-20T07:41:05;3.10;99.90
9225;DHT22;4647;48.072;11.616;2022-12-20T07:43:32;3.10;99.90
9225;DHT22;4647;48.072;11.616;2022-12-20T07:46:00;3.20;99.90
9225;DHT22;4647;48.072;11.616;2022-12-20T07:48:27;3.20;99.90
9225;DHT22;4647;48.072;11.616;2022-12-20T07:50:58;3.30;99.90
9225;DHT22;4647;48.072;11.616;2022-12-20T07:53:27;3.30;99.90
9225;DHT22;4647;48.072;11.616;2022-12-20T07:55:55;3.50;99.90
9225;DHT22;4647;48.072;11.616;2022-12-20T07:58:22;3.60;99.90
9225;DHT22;4647;48.072;11.616;2022-12-20T08:00:50;3.70;99.90
9225;DHT22;4647;48.072;11.616;2022-12-20T08:03:18;3.90;99.90
9225;DHT22;4647;48.072;11.616;2022-12-20T08:05:50;3.80;99.90
9225;DHT22;4647;48.072;11.616;2022-12-20T08:08:19;3.90;99.90
9225;DHT22;4647;48.072;11.616;2022-12-20T08:10:46;4.10;99.90
9225;DHT22;4647;48.072;11.616;2022-12-20T08:13:14;4.10;99.90
9225;DHT22;4647;48.072;11.616;2022-12-20T08:15:41;4.20;99.90
9225;DHT22;4647;48.072;11.616;2022-12-20T08:18:08;4.30;99.90
9225;DHT22;4647;48.072;11.616;2022-12-20T08:20:34;4.20;99.90
9225;DHT22;4647;48.072;11.616;2022-12-20T08:23:02;4.30;99.90
9225;DHT22;4647;48.072;11.616;2022-12-20T08:25:30;4.40;99.90
9225;DHT22;4647;48.072;11.616;2022-12-20T08:27:57;4.50;99.90
9225;DHT22;4647;48.072;11.616;2022-12-20T08:30:26;4.50;99.90
9225;DHT22;4647;48.072;11.616;2022-12-20T08:32:53;4.60;99.90
9225;DHT22;4647;48.072;11.616;2022-12-20T08:35:20;4.60;99.90
9225;DHT22;4647;48.072;11.616;2022-12-20T08:37:49;4.80;99.90
9225;DHT22;4647;48.072;11.616;2022-12-20T08:40:16;5.00;99.90
9225;DHT22;4647;48.072;11.616;2022-12-20T08:42:45;5.20;99.90
9225;DHT22;4647;48.072;11.616;2022-12-20T08:45:12;5.30;99.90
9225;DHT22;4647;48.072;11.616;2022-12-20T08:47:38;5.30;99.90
9225;DHT22;4647;48.072;11.616;2022-12-20T08:52:33;5.50;99.90
9225;DHT22;4647;48.072;11.616;2022-12-20T08:55:00;5.60;99.90
9225;DHT22;4647;48.072;11.616;2022-12-20T08:57:27;5.70;99.90
9225;DHT22;4647;48.072;11.616;2022-12-20T08:59:55;5.80;99.90
9225;DHT22;4647;48.072;11.616;2022-12-20T09:02:22;5.90;99.90
9225;DHT22;4647;48.072;11.616;2022-12-20T09:04:49;5.90;99.90
9225;DHT22;4647;48.072;11.616;2022-12-20T09:07:16;5.90;99.90
9225;DHT22;4647;48.072;11.616;2022-12-20T09:09:43;5.80;99.90
9225;DHT22;4647;48.072;11.616;2022-12-20T09:12:11;5.80;99.90
9225;DHT22;4647;48.072;11.616;2022-12-20T09:14:38;5.90;99.90
9225;DHT22;4647;48.072;11.616;2022-12-20T09:17:07;5.90;99.90
9225;DHT22;4647;48.072;11.616;2022-12-20T09:19:34;6.00;99.90
9225;DHT22;4647;48.072;11.616;2022-12-20T09:22:01;6.00;99.90
9225;DHT22;4647;48.072;11.616;2022-12-20T09:24:28;6.10;99.90
9225;DHT22;4647;48.072;11.616;2022-12-20T09:26:55;6.00;99.90
9225;DHT22;4647;48.072;11.616;2022-12-20T09:29:22;5.90;99.90
9225;DHT22;4647;48.072;11.616;2022-12-20T09:31:49;5.90;99.90
9225;DHT22;4647;48.072;11.616;2022-12-20T09:34:17;5.80;99.90
9225;DHT22;4647;48.072;11.616;2022-12-20T09:36:44;5.90;99.90
9225;DHT22;4647;48.072;11.616;2022-12-20T09:39:11;6.10;99.90
9225;DHT22;4647;48.072;11.616;2022-12-20T09:41:40;6.10;99.90
9225;DHT22;4647;48.072;11.616;2022-12-20T09:44:13;5.90;99.90
9225;DHT22;4647;48.072;11.616;2022-12-20T09:46:42;5.90;99.90
9225;DHT22;4647;48.072;11.616;2022-12-20T09:49:11;6.00;99.90
9225;DHT22;4647;48.072;11.616;2022-12-20T09:52:03;6.10;99.90
9225;DHT22;4647;48.072;11.616;2022-12-20T09:54:43;6.40;99.90
9225;DHT22;4647;48.072;11.616;2022-12-20T09:57:17;6.40;99.90
9225;DHT22;4647;48.072;11.616;2022-12-20T09:59:47;6.30;99.90
9225;DHT22;4647;48.072;11.616;2022-12-20T10:02:19;6.50;99.90
9225;DHT22;4647;48.072;11.616;2022-12-20T10:04:46;6.50;99.90
9225;DHT22;4647;48.072;11.616;2022-12-20T10:07:25;6.60;99.90
9225;DHT22;4647;48.072;11.616;2022-12-20T10:10:08;6.70;99.90
9225;DHT22;4647;48.072;11.616;2022-12-20T10:12:44;6.90;99.90
9225;DHT22;4647;48.072;11.616;2022-12-20T10:15:18;6.70;99.90
9225;DHT22;4647;48.072;11.616;2022-12-20T10:17:53;6.80;99.90
9225;DHT22;4647;48.072;11.616;2022-12-20T10:20:40;7.00;99.90
9225;DHT22;4647;48.072;11.616;2022-12-20T10:23:18;7.10;99.90
9225;DHT22;4647;48.072;11.616;2022-12-20T10:25:49;7.40;99.90
9225;DHT22;4647;48.072;11.616;2022-12-20T10:28:18;7.50;99.90
9225;DHT22;4647;48.072;11.616;2022-12-20T10:30:46;7.60;99.90
9225;DHT22;4647;48.072;11.616;2022-12-20T10:33:19;7.70;99.90
9225;DHT22;4647;48.072;11.616;2022-12-20T10:35:47;7.70;99.90
9225;DHT22;4647;48.072;11.616;2022-12-20T10:38:17;7.80;99.90
9225;DHT22;4647;48.072;11.616;2022-12-20T10:40:47;8.00;99.90
9225;DHT22;4647;48.072;11.616;2022-12-20T10:43:16;8.00;99.90
9225;DHT22;4647;48.072;11.616;2022-12-20T10:45:52;8.10;99.90
9225;DHT22;4647;48.072;11.616;2022-12-20T10:48:27;8.30;99.90
9225;DHT22;4647;48.072;11.616;2022-12-20T10:50:57;8.30;99.90
9225;DHT22;4647;48.072;11.616;2022-12-20T10:53:26;8.30;99.90
9225;DHT22;4647;48.072;11.616;2022-12-20T10:55:54;8.10;99.90
9225;DHT22;4647;48.072;11.616;2022-12-20T10:58:37;8.20;99.90
9225;DHT22;4647;48.072;11.616;2022-12-20T11:01:10;8.20;99.90
9225;DHT22;4647;48.072;11.616;2022-12-20T11:03:53;8.20;99.90
9225;DHT22;4647;48.072;11.616;2022-12-20T11:06:23;8.20;99.90
9225;DHT22;4647;48.072;11.616;2022-12-20T11:08:51;8.20;99.90
9225;DHT22;4647;48.072;11.616;2022-12-20T11:11:20;8.20;99.90
9225;DHT22;4647;48.072;11.616;2022-12-20T11:13:48;8.30;99.90
9225;DHT22;4647;48.072;11.616;2022-12-20T11:16:36;8.40;99.90
9225;DHT22;4647;48.072;11.616;2022-12-20T11:22:02;8.60;99.90
9225;DHT22;4647;48.072;11.616;2022-12-20T11:24:37;8.70;99.90
9225;DHT22;4647;48.072;11.616;2022-12-20T11:27:18;8.80;99.90
9225;DHT22;4647;48.072;11.616;2022-12-20T11:29:57;9.10;99.90
9225;DHT22;4647;48.072;11.616;2022-12-20T11:32:36;9.30;99.90
9225;DHT22;4647;48.072;11.616;2022-12-20T11:35:11;9.20;99.90
9225;DHT22;4647;48.072;11.616;2022-12-20T11:37:45;9.40;99.90
9225;DHT22;4647;48.072;11.616;2022-12-20T11:40:31;9.60;99.90
9225;DHT22;4647;48.072;11.616;2022-12-20T11:43:26;9.40;99.90
9225;DHT22;4647;48.072;11.616;2022-12-20T11:46:06;9.40;99.90
9225;DHT22;4647;48.072;11.616;2022-12-20T11:48:48;9.30;99.90
9225;DHT22;4647;48.072;11.616;2022-12-20T11:51:22;9.10;99.90
9225;DHT22;4647;48.072;11.616;2022-12-20T11:53:54;8.90;99.90
9225;DHT22;4647;48.072;11.616;2022-12-20T11:56:29;8.90;99.90
9225;DHT22;4647;48.072;11.616;2022-12-20T11:58:59;8.80;99.90
9225;DHT22;4647;48.072;11.616;2022-12-20T12:01:32;8.60;99.90
9225;DHT22;4647;48.072;11.616;2022-12-20T12:04:07;8.40;99.90
9225;DHT22;4647;48.072;11.616;2022-12-20T12:06:38;8.10;99.90
9225;DHT22;4647;48.072;11.616;2022-12-20T12:09:13;8.10;99.90
9225;DHT22;4647;48.072;11.616;2022-12-20T12:11:46;8.20;99.90
9225;DHT22;4647;48.072;11.616;2022-12-20T12:14:21;8.30;99.90
9225;DHT22;4647;48.072;11.616;2022-12-20T12:16:56;8.40;99.90
9225;DHT22;4647;48.072;11.616;2022-12-20T12:19:25;8.50;99.90
9225;DHT22;4647;48.072;11.616;2022-12-20T12:22:00;8.80;99.90
9225;DHT22;4647;48.072;11.616;2022-12-20T12:24:32;8.90;99.90
9225;DHT22;4647;48.072;11.616;2022-12-20T12:27:02;9.00;99.90
9225;DHT22;4647;48.072;11.616;2022-12-20T12:29:29;9.00;99.90
9225;DHT22;4647;48.072;11.616;2022-12-20T12:32:02;9.10;99.90
9225;DHT22;4647;48.072;11.616;2022-12-20T12:34:40;9.10;99.90
9225;DHT22;4647;48.072;11.616;2022-12-20T12:45:54;9.40;99.90
9225;DHT22;4647;48.072;11.616;2022-12-20T12:48:26;9.40;99.90
9225;DHT22;4647;48.072;11.616;2022-12-20T12:50:56;9.50;99.90
9225;DHT22;4647;48.072;11.616;2022-12-20T12:53:29;9.40;99.90
9225;DHT22;4647;48.072;11.616;2022-12-20T12:55:58;9.40;99.90
9225;DHT22;4647;48.072;11.616;2022-12-20T12:58:35;9.30;99.90
9225;DHT22;4647;48.072;11.616;2022-12-20T13:01:04;9.10;99.90
9225;DHT22;4647;48.072;11.616;2022-12-20T13:03:45;9.00;99.90
9225;DHT22;4647;48.072;11.616;2022-12-20T13:06:53;8.90;99.90
9225;DHT22;4647;48.072;11.616;2022-12-20T13:09:38;8.70;99.90
9225;DHT22;4647;48.072;11.616;2022-12-20T13:15:49;8.80;99.90
9225;DHT22;4647;48.072;11.616;2022-12-20T13:18:24;8.90;99.90
9225;DHT22;4647;48.072;11.616;2022-12-20T13:24:34;8.80;99.90
9225;DHT22;4647;48.072;11.616;2022-12-20T13:27:02;8.80;99.90
9225;DHT22;4647;48.072;11.616;2022-12-20T13:29:34;8.60;99.90
9225;DHT22;4647;48.072;11.616;2022-12-20T13:32:03;8.40;99.90
9225;DHT22;4647;48.072;11.616;2022-12-20T13:34:54;8.40;99.90
9225;DHT22;4647;48.072;11.616;2022-12-20T13:37:29;8.30;99.90
9225;DHT22;4647;48.072;11.616;2022-12-20T13:40:19;8.30;99.90
9225;DHT22;4647;48.072;11.616;2022-12-20T13:42:47;8.30;99.90
9225;DHT22;4647;48.072;11.616;2022-12-20T13:45:18;8.20;99.90
9225;DHT22;4647;48.072;11.616;2022-12-20T13:47:48;8.20;99.90
9225;DHT22;4647;48.072;11.616;2022-12-20T13:50:31;8.10;99.90
9225;DHT22;4647;48.072;11.616;2022-12-20T13:53:00;8.20;99.90
9225;DHT22;4647;48.072;11.616;2022-12-20T13:55:38;8.00;99.90
9225;DHT22;4647;48.072;11.616;2022-12-20T13:58:13;7.80;99.90
9225;DHT22;4647;48.072;11.616;2022-12-20T14:00:42;7.80;99.90
9225;DHT22;4647;48.072;11.616;2022-12-20T14:03:22;7.70;99.90
9225;DHT22;4647;48.072;11.616;2022-12-20T14:05:55;7.60;99.90
9225;DHT22;4647;48.072;11.616;2022-12-20T14:08:25;7.60;99.90
9225;DHT22;4647;48.072;11.616;2022-12-20T14:10:53;7.50;99.90
9225;DHT22;4647;48.072;11.616;2022-12-20T14:13:22;7.50;99.90
9225;DHT22;4647;48.072;11.616;2022-12-20T14:15:50;7.80;99.90
9225;DHT22;4647;48.072;11.616;2022-12-20T14:18:21;7.90;99.90
9225;DHT22;4647;48.072;11.616;2022-12-20T14:20:50;8.10;99.90
9225;DHT22;4647;48.072;11.616;2022-12-20T14:23:20;8.20;99.90
9225;DHT22;4647;48.072;11.616;2022-12-20T14:25:50;8.20;99.90
9225;DHT22;4647;48.072;11.616;2022-12-20T14:28:28;8.00;99.90
9225;DHT22;4647;48.072;11.616;2022-12-20T14:30:57;8.00;99.90
9225;DHT22;4647;48.072;11.616;2022-12-20T14:33:30;7.90;99.90
9225;DHT22;4647;48.072;11.616;2022-12-20T14:36:08;7.80;99.90
9225;DHT22;4647;48.072;11.616;2022-12-20T14:38:35;7.70;99.90
9225;DHT22;4647;48.072;11.616;2022-12-20T14:41:03;7.50;99.90
9225;DHT22;4647;48.072;11.616;2022-12-20T14:43:33;7.10;99.90
9225;DHT22;4647;48.072;11.616;2022-12-20T14:46:15;6.80;99.90
9225;DHT22;4647;48.072;11.616;2022-12-20T14:48:45;6.60;99.90
9225;DHT22;4647;48.072;11.616;2022-12-20T14:51:13;6.40;99.90
9225;DHT22;4647;48.072;11.616;2022-12-20T14:53:45;6.30;99.90
9225;DHT22;4647;48.072;11.616;2022-12-20T14:56:16;6.30;99.90
9225;DHT22;4647;48.072;11.616;2022-12-20T14:58:44;6.20;99.90
9225;DHT22;4647;48.072;11.616;2022-12-20T15:01:19;6.10;99.90
9225;DHT22;4647;48.072;11.616;2022-12-20T15:03:53;6.00;99.90
9225;DHT22;4647;48.072;11.616;2022-12-20T15:06:32;6.00;99.90
9225;DHT22;4647;48.072;11.616;2022-12-20T15:09:00;5.90;99.90
9225;DHT22;4647;48.072;11.616;2022-12-20T15:11:27;5.90;99.90
9225;DHT22;4647;48.072;11.616;2022-12-20T15:13:55;5.80;99.90
9225;DHT22;4647;48.072;11.616;2022-12-20T15:16:24;5.60;99.90
9225;DHT22;4647;48.072;11.616;2022-12-20T15:18:55;5.50;99.90
9225;DHT22;4647;48.072;11.616;2022-12-20T15:21:28;5.50;99.90
9225;DHT22;4647;48.072;11.616;2022-12-20T15:23:56;5.50;99.90
9225;DHT22;4647;48.072;11.616;2022-12-20T15:26:24;5.50;99.90
9225;DHT22;4647;48.072;11.616;2022-12-20T15:28:53;5.50;99.90
9225;DHT22;4647;48.072;11.616;2022-12-20T15:31:21;5.50;99.90
9225;DHT22;4647;48.072;11.616;2022-12-20T15:33:49;5.40;99.90
9225;DHT22;4647;48.072;11.616;2022-12-20T15:36:21;5.30;99.90
9225;DHT22;4647;48.072;11.616;2022-12-20T15:38:51;5.20;99.90
9225;DHT22;4647;48.072;11.616;2022-12-20T15:41:20;5.10;99.90
9225;DHT22;4647;48.072;11.616;2022-12-20T15:43:50;5.10;99.90
9225;DHT22;4647;48.072;11.616;2022-12-20T15:46:17;5.00;99.90
9225;DHT22;4647;48.072;11.616;2022-12-20T15:48:44;5.00;99.90
9225;DHT22;4647;48.072;11.616;2022-12-20T15:51:15;5.00;99.90
9225;DHT22;4647;48.072;11.616;2022-12-20T15:53:44;5.00;99.90
9225;DHT22;4647;48.072;11.616;2022-12-20T15:56:16;4.80;99.90
9225;DHT22;4647;48.072;11.616;2022-12-20T15:58:44;4.80;99.90
9225;DHT22;4647;48.072;11.616;2022-12-20T16:01:14;4.80;99.90
9225;DHT22;4647;48.072;11.616;2022-12-20T16:03:43;4.60;99.90
9225;DHT22;4647;48.072;11.616;2022-12-20T16:06:10;4.60;99.90
9225;DHT22;4647;48.072;11.616;2022-12-20T16:08:38;4.60;99.90
9225;DHT22;4647;48.072;11.616;2022-12-20T16:11:10;4.50;99.90
9225;DHT22;4647;48.072;11.616;2022-12-20T16:13:42;4.50;99.90
9225;DHT22;4647;48.072;11.616;2022-12-20T16:16:15;4.50;99.90
9225;DHT22;4647;48.072;11.616;2022-12-20T16:18:43;4.50;99.90
9225;DHT22;4647;48.072;11.616;2022-12-20T16:21:14;4.50;99.90
9225;DHT22;4647;48.072;11.616;2022-12-20T16:23:42;4.50;99.90
9225;DHT22;4647;48.072;11.616;2022-12-20T16:26:12;4.30;99.90
9225;DHT22;4647;48.072;11.616;2022-12-20T16:28:39;4.40;99.90
9225;DHT22;4647;48.072;11.616;2022-12-20T16:31:10;4.40;99.90
9225;DHT22;4647;48.072;11.616;2022-12-20T16:33:38;4.40;99.90
9225;DHT22;4647;48.072;11.616;2022-12-20T16:36:07;4.40;99.90
9225;DHT22;4647;48.072;11.616;2022-12-20T16:38:35;4.40;99.90
9225;DHT22;4647;48.072;11.616;2022-12-20T16:41:12;4.30;99.90
9225;DHT22;4647;48.072;11.616;2022-12-20T16:43:39;4.30;99.90
9225;DHT22;4647;48.072;11.616;2022-12-20T16:46:09;4.30;99.90